createdAt,value
2017-12-09T21:26:11.326Z,99800.97
2017-12-09T21:31:31.494Z,99795.34
2017-12-09T21:34:00.123Z,99794.05
2017-12-09T21:36:30.045Z,99791.02
2017-12-09T21:38:58.848Z,99793.03
2017-12-09T21:41:35.034Z,99795.05
2017-12-09T21:44:07.620Z,99791.67
2017-12-09T21:46:43.298Z,99794.16
2017-12-09T21:49:18.894Z,99803.44
2017-12-09T21:52:00.400Z,99784.83
2017-12-09T21:54:31.722Z,99798.72
2017-12-09T21:57:02.772Z,99791.50
2017-12-09T21:59:38.236Z,99795.74
2017-12-09T22:02:11.896Z,99793.19
2017-12-09T22:04:55.192Z,99794.92
2017-12-09T22:07:28.922Z,99794.41
2017-12-09T22:10:00.003Z,99783.52
2017-12-09T22:12:33.449Z,99782.61
2017-12-09T22:15:11.428Z,99780.44
2017-12-09T22:17:44.500Z,99777.94
2017-12-09T22:20:12.920Z,99771.14
2017-12-09T22:22:41.582Z,99773.64
2017-12-09T22:25:09.970Z,99767.28
2017-12-09T22:27:38.352Z,99774.40
2017-12-09T22:30:07.027Z,99761.34
2017-12-09T22:32:38.843Z,99759.61
2017-12-09T22:35:09.070Z,99755.36
2017-12-09T22:37:37.776Z,99747.77
2017-12-09T22:40:06.483Z,99751.20
2017-12-09T22:42:35.694Z,99757.07
2017-12-09T22:45:05.006Z,99756.70
2017-12-09T22:47:35.791Z,99751.66
2017-12-09T22:50:05.795Z,99752.08
2017-12-09T22:55:22.319Z,99752.49
2017-12-09T22:57:56.967Z,99743.65
2017-12-09T23:00:28.646Z,99745.72
2017-12-09T23:03:13.686Z,99737.73
2017-12-09T23:08:54.120Z,99731.34
2017-12-09T23:11:31.981Z,99725.86
2017-12-09T23:14:04.897Z,99727.17
2017-12-09T23:16:39.221Z,99725.14
2017-12-09T23:19:09.302Z,99719.97
2017-12-09T23:21:41.602Z,99706.91
2017-12-09T23:24:13.150Z,99710.63
2017-12-09T23:26:44.781Z,99721.19
2017-12-09T23:29:21.087Z,99697.16
2017-12-09T23:31:52.125Z,99698.42
2017-12-09T23:34:23.207Z,99697.11
2017-12-09T23:36:54.716Z,99693.33
2017-12-09T23:39:27.087Z,99689.84
2017-12-09T23:42:00.065Z,99688.66
2017-12-09T23:44:32.454Z,99683.97
2017-12-09T23:47:03.499Z,99691.16
2017-12-09T23:49:34.641Z,99678.02
2017-12-09T23:52:05.401Z,99674.25
2017-12-09T23:54:33.778Z,99668.71
2017-12-09T23:57:04.080Z,99663.67
2017-12-09T23:59:34.288Z,99664.06
